Time;durP1;ratioP1;P1;durP2;ratioP2;P2;SDS_P1;SDS_P2;PMS_P1;PMS_P2;Temp;Humidity;BMP_temperature;BMP_pressure;BME280_temperature;BME280_humidity;BME280_pressure;Samples;Min_cycle;Max_cycle;Signal;HPM_P1;HPM_P2
2021/06/21 00:00:10;;;;;;;10.38;3.47;;;;;;;15.73;100.00;95105.03;1038989;28;20095;-68
2021/06/21 00:00:41;;;;;;;15.75;4.03;;;;;;;15.71;100.00;95106.44;1039899;28;20044;-68
2021/06/21 00:01:11;;;;;;;9.88;3.70;;;;;;;15.71;100.00;95104.56;1030716;28;20438;-68
2021/06/21 00:01:42;;;;;;;11.85;3.70;;;;;;;15.71;100.00;95103.78;1030685;28;20057;-67
2021/06/21 00:02:12;;;;;;;13.50;3.78;;;;;;;15.70;100.00;95103.00;1030759;28;20566;-68
2021/06/21 00:02:43;;;;;;;14.35;3.47;;;;;;;15.68;100.00;95104.41;1026273;28;20030;-67
2021/06/21 00:03:13;;;;;;;13.20;3.67;;;;;;;15.60;100.00;95098.00;1030061;28;20026;-68
2021/06/21 00:03:44;;;;;;;14.00;4.28;;;;;;;15.66;100.00;95112.66;1030789;28;20040;-67
2021/06/21 00:04:14;;;;;;;14.65;4.43;;;;;;;15.68;100.00;95105.19;1030522;28;20664;-68
2021/06/21 00:04:48;;;;;;;12.48;3.58;;;;;;;15.65;100.00;95103.13;1026809;28;20439;-67
2021/06/21 00:05:19;;;;;;;13.40;4.00;;;;;;;15.63;100.00;95100.03;1023949;28;20090;-68
2021/06/21 00:05:49;;;;;;;13.00;3.53;;;;;;;15.67;100.00;95105.50;1024350;28;20575;-68
2021/06/21 00:06:20;;;;;;;12.77;3.38;;;;;;;15.66;100.00;95107.38;1030721;28;20073;-68
2021/06/21 00:06:50;;;;;;;12.98;3.92;;;;;;;15.64;100.00;95104.22;1026542;28;20133;-67
2021/06/21 00:07:21;;;;;;;11.23;3.20;;;;;;;15.67;100.00;95108.91;1026935;28;20042;-68
2021/06/21 00:07:51;;;;;;;8.50;3.25;;;;;;;15.62;100.00;95101.09;1026380;28;20456;-67
2021/06/21 00:08:22;;;;;;;9.35;3.58;;;;;;;15.67;100.00;95111.56;1030912;28;20049;-67
2021/06/21 00:08:52;;;;;;;12.18;3.72;;;;;;;15.66;100.00;95112.66;1030779;28;20030;-68
2021/06/21 00:09:23;;;;;;;14.55;4.35;;;;;;;15.63;100.00;95110.59;1030635;28;20050;-68
2021/06/21 00:09:53;;;;;;;13.60;3.75;;;;;;;15.67;100.00;95113.44;1034917;28;20022;-68
2021/06/21 00:10:27;;;;;;;14.02;3.85;;;;;;;15.69;100.00;95112.03;1034759;28;20043;-67
2021/06/21 00:10:57;;;;;;;17.48;4.28;;;;;;;15.69;100.00;95112.03;1034685;28;20064;-67
2021/06/21 00:11:28;;;;;;;11.07;3.67;;;;;;;15.64;100.00;95103.44;1035888;28;20033;-67
2021/06/21 00:11:58;;;;;;;11.20;3.83;;;;;;;15.69;100.00;95112.03;1031056;28;20026;-68
2021/06/21 00:12:31;;;;;;;9.93;4.05;;;;;;;15.67;100.00;95111.56;1034783;28;20071;-68
2021/06/21 00:13:02;;;;;;;14.55;3.60;;;;;;;15.67;100.00;95114.22;1030884;28;20030;-68
2021/06/21 00:13:32;;;;;;;11.52;3.70;;;;;;;15.67;100.00;95114.22;1031008;28;20042;-68
2021/06/21 00:14:03;;;;;;;14.07;3.85;;;;;;;15.69;100.00;95114.69;1030619;28;20531;-67
2021/06/21 00:14:33;;;;;;;8.77;3.58;;;;;;;15.67;100.00;95108.91;1026540;28;20031;-69
2021/06/21 00:15:04;;;;;;;13.57;4.13;;;;;;;15.72;100.00;95114.03;1023129;28;20050;-68
2021/06/21 00:15:35;;;;;;;12.18;3.65;;;;;;;15.72;100.00;95113.28;1022962;29;20062;-68
2021/06/21 00:16:05;;;;;;;9.30;4.07;;;;;;;15.72;100.00;95110.63;1026754;28;20050;-67
2021/06/21 00:16:36;;;;;;;12.07;4.18;;;;;;;15.72;100.00;95111.41;1024295;28;20130;-67
2021/06/21 00:17:06;;;;;;;14.85;4.22;;;;;;;15.73;100.00;95117.50;1022489;29;20041;-67
2021/06/21 00:17:37;;;;;;;15.10;3.38;;;;;;;15.71;100.00;95120.44;1026757;28;20054;-68
2021/06/21 00:18:13;;;;;;;14.07;3.88;;;;;;;15.72;100.00;95127.28;1027102;28;20482;-67
2021/06/21 00:18:47;;;;;;;11.52;3.92;;;;;;;15.72;100.00;95121.22;1026668;28;20261;-68
2021/06/21 00:19:17;;;;;;;11.73;3.63;;;;;;;15.73;100.00;95136.00;1034773;28;20112;-68
2021/06/21 00:19:48;;;;;;;12.75;4.20;;;;;;;15.71;100.00;95124.94;1030500;28;20054;-69
2021/06/21 00:20:19;;;;;;;11.90;4.32;;;;;;;15.72;100.00;95132.56;1026651;28;20670;-69
2021/06/21 00:20:51;;;;;;;17.08;4.20;;;;;;;15.67;100.00;95119.50;1038685;28;20030;-67
2021/06/21 00:21:21;;;;;;;16.92;4.18;;;;;;;15.74;100.00;95124.34;1034887;28;20033;-68
2021/06/21 00:21:52;;;;;;;14.95;4.07;;;;;;;15.70;100.00;95121.53;1033976;28;20072;-67
2021/06/21 00:22:22;;;;;;;11.48;4.28;;;;;;;15.71;100.00;95120.44;1022622;29;20041;-68
2021/06/21 00:22:55;;;;;;;15.48;4.13;;;;;;;15.71;100.00;95117.78;1022564;28;20047;-64
2021/06/21 00:23:26;;;;;;;15.20;4.22;;;;;;;15.74;100.00;95108.47;1026735;28;20046;-68
2021/06/21 00:23:59;;;;;;;14.65;4.43;;;;;;;15.73;100.00;95107.69;1027000;28;20030;-68
2021/06/21 00:24:30;;;;;;;9.77;4.00;;;;;;;15.74;100.00;95105.81;1022140;29;20541;-69
2021/06/21 00:25:00;;;;;;;13.23;4.47;;;;;;;15.74;100.00;95114.53;1024354;28;20051;-68
2021/06/21 00:25:31;;;;;;;13.93;4.88;;;;;;;15.74;100.00;95109.22;1027425;28;20091;-68
2021/06/21 00:26:01;;;;;;;15.50;3.85;;;;;;;15.75;100.00;95110.00;1030908;28;20031;-67
2021/06/21 00:26:32;;;;;;;11.95;3.63;;;;;;;15.73;100.00;95112.97;1030642;28;20026;-68
2021/06/21 00:27:02;;;;;;;13.73;4.43;;;;;;;15.75;100.00;95110.00;1034740;28;20034;-68
2021/06/21 00:27:34;;;;;;;13.82;4.43;;;;;;;15.71;100.00;95104.56;1034919;28;20458;-68
2021/06/21 00:28:04;;;;;;;15.80;4.20;;;;;;;15.73;100.00;95097.09;1035319;28;20071;-67
2021/06/21 00:28:35;;;;;;;15.13;4.55;;;;;;;15.76;100.00;95100.97;1032683;28;20108;-68
2021/06/21 00:29:05;;;;;;;15.82;3.83;;;;;;;15.75;100.00;95094.91;1027656;28;20041;-67
2021/06/21 00:29:36;;;;;;;10.75;4.05;;;;;;;15.75;100.00;95089.63;1031858;28;20508;-69
2021/06/21 00:30:09;;;;;;;17.17;4.18;;;;;;;15.74;100.00;95082.00;1032712;28;20265;-68
2021/06/21 00:30:39;;;;;;;11.63;3.75;;;;;;;15.75;100.00;95083.56;1031444;28;20112;-68
2021/06/21 00:31:10;;;;;;;13.40;4.05;;;;;;;15.74;100.00;95082.00;1028052;28;20138;-68
2021/06/21 00:31:40;;;;;;;13.80;3.90;;;;;;;15.73;100.00;95083.88;1025007;28;20031;-69
2021/06/21 00:32:14;;;;;;;11.60;4.10;;;;;;;15.71;100.00;95083.41;1032566;28;20038;-67
2021/06/21 00:32:47;;;;;;;18.73;4.40;;;;;;;15.66;100.00;95070.34;1036718;28;20408;-70
2021/06/21 00:33:18;;;;;;;17.80;4.63;;;;;;;15.69;100.00;95077.66;1035478;28;20544;-69
2021/06/21 00:33:51;;;;;;;13.52;3.88;;;;;;;15.71;100.00;95083.41;1040631;28;20048;-68
2021/06/21 00:34:21;;;;;;;18.75;3.90;;;;;;;15.73;100.00;95085.75;1039641;28;20401;-68
2021/06/21 00:34:52;;;;;;;14.38;4.13;;;;;;;15.65;100.00;95068.75;1039647;28;20026;-68
2021/06/21 00:35:23;;;;;;;15.27;4.28;;;;;;;15.69;100.00;95072.38;1026918;28;20038;-69
2021/06/21 00:35:53;;;;;;;17.17;4.72;;;;;;;15.75;100.00;95073.75;1027478;28;20094;-67
2021/06/21 00:36:23;;;;;;;15.00;3.80;;;;;;;15.75;100.00;95068.47;1027415;28;20508;-68
2021/06/21 00:36:54;;;;;;;14.13;4.00;;;;;;;15.73;100.00;95072.53;1030032;28;20092;-68
2021/06/21 00:37:24;;;;;;;14.20;3.83;;;;;;;15.71;100.00;95062.25;1027377;28;20030;-66
2021/06/21 00:37:57;;;;;;;11.27;3.80;;;;;;;15.74;100.00;95071.44;1027615;28;20511;-67
2021/06/21 00:38:30;;;;;;;12.27;3.53;;;;;;;15.73;100.00;95067.22;1035407;28;20479;-68
2021/06/21 00:39:00;;;;;;;15.27;3.60;;;;;;;15.73;100.00;95070.66;1031967;28;20026;-68
2021/06/21 00:39:31;;;;;;;11.65;3.75;;;;;;;15.73;100.00;95067.22;1032449;28;20030;-68
2021/06/21 00:40:07;;;;;;;16.25;4.25;;;;;;;15.73;100.00;95065.38;1031621;28;20158;-68
2021/06/21 00:40:37;;;;;;;12.48;3.50;;;;;;;15.67;100.00;95053.38;1030323;28;20031;-68
2021/06/21 00:41:08;;;;;;;14.88;3.95;;;;;;;15.69;100.00;95059.16;1035467;28;20029;-68
2021/06/21 00:41:38;;;;;;;15.13;3.97;;;;;;;15.71;100.00;95067.53;1031636;28;20050;-69
2021/06/21 00:42:09;;;;;;;13.63;3.60;;;;;;;15.71;100.00;95062.25;1020995;29;20027;-69
2021/06/21 00:42:43;;;;;;;15.80;3.70;;;;;;;15.65;100.00;95057.38;1021726;28;20030;-68
2021/06/21 00:43:14;;;;;;;19.55;4.65;;;;;;;15.70;100.00;95062.56;1027215;28;20074;-67
2021/06/21 00:43:44;;;;;;;21.92;4.38;;;;;;;15.68;100.00;95062.84;1031763;28;20045;-69
2021/06/21 00:44:14;;;;;;;11.32;4.28;;;;;;;15.69;100.00;95056.50;1031452;28;20029;-69
2021/06/21 00:44:48;;;;;;;15.95;4.40;;;;;;;15.70;100.00;95055.41;1032542;28;20034;-68
2021/06/21 00:45:22;;;;;;;10.00;3.70;;;;;;;15.68;100.00;95054.16;1043625;28;20056;-68
2021/06/21 00:45:53;;;;;;;16.38;4.53;;;;;;;15.69;100.00;95053.06;1035347;28;20384;-69
2021/06/21 00:46:23;;;;;;;15.20;4.07;;;;;;;15.62;100.00;95048.19;1035526;28;20053;-68
2021/06/21 00:46:54;;;;;;;16.88;4.15;;;;;;;15.62;100.00;95042.91;1033492;28;20042;-69
2021/06/21 00:47:24;;;;;;;15.45;3.95;;;;;;;15.64;100.00;95053.97;1031659;28;20022;-70
2021/06/21 00:47:55;;;;;;;17.27;4.43;;;;;;;15.64;100.00;95059.25;1035496;28;20111;-67
2021/06/21 00:48:25;;;;;;;13.32;3.83;;;;;;;15.64;100.00;95055.84;1031459;28;20578;-68
2021/06/21 00:48:56;;;;;;;15.77;3.80;;;;;;;15.63;100.00;95054.28;1033680;28;20030;-67
2021/06/21 00:49:26;;;;;;;21.65;4.93;;;;;;;15.63;100.00;95054.28;1039380;28;20060;-69
2021/06/21 00:49:57;;;;;;;11.98;3.90;;;;;;;15.62;100.00;95048.19;1035571;28;20509;-68
2021/06/21 00:50:28;;;;;;;11.65;3.80;;;;;;;15.59;100.00;95048.03;1031322;28;20022;-68
2021/06/21 00:51:01;;;;;;;18.45;4.05;;;;;;;15.62;100.00;95048.19;1023970;28;20107;-67
2021/06/21 00:51:32;;;;;;;18.42;4.07;;;;;;;15.56;100.00;95038.88;1025195;28;20523;-68
2021/06/21 00:52:02;;;;;;;15.93;3.67;;;;;;;15.60;100.00;95044.34;1035355;28;20026;-67
2021/06/21 00:52:33;;;;;;;10.82;4.20;;;;;;;15.56;100.00;95038.88;1029411;28;20539;-68
2021/06/21 00:53:03;;;;;;;11.57;3.95;;;;;;;15.55;100.00;95038.09;1030068;28;20034;-67
2021/06/21 00:53:36;;;;;;;15.05;4.28;;;;;;;15.56;100.00;95038.88;1027319;28;20023;-67
2021/06/21 00:54:07;;;;;;;11.05;3.92;;;;;;;15.56;100.00;95036.25;1027055;28;20051;-68
2021/06/21 00:54:38;;;;;;;12.27;4.10;;;;;;;15.59;100.00;95043.53;1031578;28;20585;-68
2021/06/21 00:55:09;;;;;;;16.33;4.40;;;;;;;15.59;100.00;95048.81;1031613;28;20133;-69
2021/06/21 00:55:40;;;;;;;12.32;3.58;;;;;;;15.57;100.00;95049.13;1031027;28;20030;-67
2021/06/21 00:56:11;;;;;;;16.40;4.40;;;;;;;15.56;100.00;95044.94;1023597;28;20042;-68
2021/06/21 00:56:41;;;;;;;18.95;4.10;;;;;;;15.45;100.00;95032.34;1023780;28;20472;-67
2021/06/21 00:57:12;;;;;;;14.52;3.35;;;;;;;15.56;100.00;95047.59;1023684;28;20066;-68
2021/06/21 00:57:42;;;;;;;10.55;4.55;;;;;;;15.56;100.00;95044.94;1027592;28;20134;-68
2021/06/21 00:58:12;;;;;;;14.35;4.05;;;;;;;15.56;100.00;95052.88;1023288;29;20027;-71
2021/06/21 00:58:49;;;;;;;10.73;3.58;;;;;;;15.57;100.00;95051.00;1027353;28;20023;-67
2021/06/21 00:59:20;;;;;;;14.35;4.65;;;;;;;15.56;100.00;95046.81;1027554;28;20524;-68
2021/06/21 00:59:50;;;;;;;15.13;3.83;;;;;;;15.56;100.00;95052.09;1027219;28;20026;-68
2021/06/21 01:00:23;;;;;;;13.52;3.97;;;;;;;15.56;100.00;95049.47;1035428;28;20049;-69
2021/06/21 01:00:53;;;;;;;14.10;3.95;;;;;;;15.57;100.00;95056.31;1036918;28;20048;-68
2021/06/21 01:01:24;;;;;;;14.68;4.30;;;;;;;15.56;100.00;95044.94;1035960;28;20037;-68
2021/06/21 01:01:57;;;;;;;14.25;4.13;;;;;;;15.59;100.00;95042.75;1035654;28;20026;-68
2021/06/21 01:02:27;;;;;;;13.73;4.68;;;;;;;15.59;100.00;95042.75;1032944;28;20649;-68
2021/06/21 01:03:02;;;;;;;9.15;3.47;;;;;;;15.58;100.00;95041.97;1027332;28;20031;-68
2021/06/21 01:03:33;;;;;;;13.90;3.88;;;;;;;15.61;100.00;95045.88;1032388;28;20418;-68
2021/06/21 01:04:03;;;;;;;13.00;4.50;;;;;;;15.56;100.00;95036.25;1024429;28;20030;-68
2021/06/21 01:04:34;;;;;;;11.55;4.00;;;;;;;15.55;100.00;95037.31;1035280;28;20145;-68
2021/06/21 01:05:09;;;;;;;14.25;4.28;;;;;;;15.55;100.00;95032.03;1031250;28;20041;-69
2021/06/21 01:05:42;;;;;;;13.02;4.18;;;;;;;15.55;100.00;95032.78;1031466;28;20058;-68
2021/06/21 01:06:13;;;;;;;10.35;3.50;;;;;;;15.55;100.00;95038.09;1032439;28;20018;-69
2021/06/21 01:06:43;;;;;;;16.58;4.93;;;;;;;15.56;100.00;95028.31;1035434;28;20022;-68
2021/06/21 01:07:14;;;;;;;20.35;5.05;;;;;;;15.56;100.00;95033.59;1035325;28;20426;-68
2021/06/21 01:07:44;;;;;;;15.85;3.97;;;;;;;15.49;100.00;95030.63;1030388;28;20504;-68
2021/06/21 01:08:15;;;;;;;13.23;4.57;;;;;;;15.57;100.00;95035.91;1027277;28;20407;-69
2021/06/21 01:08:45;;;;;;;15.05;4.47;;;;;;;15.48;100.00;95021.13;1027058;28;20435;-67
2021/06/21 01:09:16;;;;;;;16.63;5.05;;;;;;;15.55;100.00;95042.59;1030568;28;20039;-68
2021/06/21 01:09:49;;;;;;;14.30;4.28;;;;;;;15.52;100.00;95036.06;1030015;28;20019;-67
2021/06/21 01:10:22;;;;;;;15.80;4.40;;;;;;;15.56;100.00;95044.19;1027308;28;20030;-68
2021/06/21 01:10:52;;;;;;;17.83;4.57;;;;;;;15.60;100.00;95049.63;1034120;28;20014;-68
2021/06/21 01:12:05;;;;;;;12.70;4.03;;;;;;;15.63;100.00;95052.41;1027360;28;20022;-67
2021/06/21 01:12:47;;;;;;;13.18;3.83;;;;;;;15.67;100.00;95049.97;1037344;28;20083;-68
2021/06/21 01:13:55;;;;;;;11.77;3.38;;;;;;;15.69;100.00;95053.84;1041916;28;20021;-68
2021/06/21 01:14:37;;;;;;;13.70;3.40;;;;;;;15.68;100.00;95054.94;1039536;28;20072;-67
2021/06/21 01:15:08;;;;;;;10.38;3.03;;;;;;;15.70;100.00;95058.03;1031916;28;20015;-68
2021/06/21 01:15:44;;;;;;;15.50;4.63;;;;;;;15.66;100.00;95046.53;1031578;28;20014;-69
2021/06/21 01:16:27;;;;;;;12.85;4.10;;;;;;;15.70;100.00;95054.63;1023399;29;20032;-69
2021/06/21 01:17:15;;;;;;;15.35;4.43;;;;;;;15.70;100.00;95058.03;1028259;28;20101;-68
2021/06/21 01:18:17;;;;;;;12.57;4.30;;;;;;;15.71;100.00;95050.88;1030752;28;20512;-68
2021/06/21 01:19:02;;;;;;;12.70;4.15;;;;;;;15.71;100.00;95056.94;1034862;28;20010;-68
2021/06/21 01:19:53;;;;;;;14.23;3.65;;;;;;;15.72;100.00;95053.19;1042155;28;20043;-68
2021/06/21 01:20:55;;;;;;;11.40;3.90;;;;;;;15.73;100.00;95048.72;1036768;28;20025;-69
2021/06/21 01:21:48;;;;;;;15.75;4.18;;;;;;;15.75;100.00;95057.09;1041131;28;20025;-67
2021/06/21 01:22:49;;;;;;;13.05;3.63;;;;;;;15.76;100.00;95054.16;1044665;28;20017;-69
2021/06/21 01:23:48;;;;;;;17.73;4.78;;;;;;;15.77;100.00;95050.41;1045450;28;20029;-69
2021/06/21 01:24:27;;;;;;;21.35;4.95;;;;;;;15.79;100.00;95052.72;1035448;28;20057;-68
2021/06/21 01:25:08;;;;;;;13.13;3.90;;;;;;;15.78;100.00;95054.59;1035992;28;20033;-68
2021/06/21 01:25:50;;;;;;;12.05;4.15;;;;;;;15.79;100.00;95052.72;1035397;28;20306;-68
2021/06/21 01:26:44;;;;;;;15.05;4.35;;;;;;;15.79;100.00;95050.91;1035558;28;20022;-70
2021/06/21 01:27:38;;;;;;;12.90;3.78;;;;;;;15.78;100.00;95051.97;1034227;28;20038;-70
2021/06/21 01:28:58;;;;;;;12.52;4.35;;;;;;;15.84;100.00;95054.47;1027845;28;20027;-68
2021/06/21 01:30:06;;;;;;;15.60;4.15;;;;;;;15.86;100.00;95057.56;1023843;28;20122;-68
2021/06/21 01:30:39;;;;;;;9.63;3.95;;;;;;;15.86;100.00;95061.00;1036971;28;20038;-68
2021/06/21 01:31:13;;;;;;;15.25;4.82;;;;;;;15.87;100.00;95056.50;1037251;28;20031;-68
2021/06/21 01:32:02;;;;;;;13.20;4.13;;;;;;;15.88;100.00;95052.75;1040915;28;20030;-69
2021/06/21 01:32:49;;;;;;;14.88;4.20;;;;;;;15.89;100.00;95051.66;1042636;28;20029;-68
2021/06/21 01:33:21;;;;;;;13.25;3.63;;;;;;;15.91;100.00;95052.13;1047621;28;20486;-68
2021/06/21 01:33:51;;;;;;;12.52;4.10;;;;;;;15.88;100.00;95047.44;1034202;28;20033;-69
2021/06/21 01:34:25;;;;;;;8.35;4.03;;;;;;;15.90;100.00;95047.94;1023471;29;20035;-69
2021/06/21 01:34:55;;;;;;;15.07;4.25;;;;;;;15.90;100.00;95050.56;1027602;28;20455;-69
2021/06/21 01:35:31;;;;;;;12.82;3.78;;;;;;;15.94;100.00;95056.78;1031585;28;20135;-69
2021/06/21 01:36:02;;;;;;;16.30;4.07;;;;;;;15.94;100.00;95048.84;1029714;28;20039;-70
2021/06/21 01:36:33;;;;;;;16.27;4.03;;;;;;;15.90;100.00;95048.69;1029495;28;20031;-68
2021/06/21 01:37:03;;;;;;;13.18;4.07;;;;;;;15.96;100.00;95057.22;1027525;28;20026;-68
2021/06/21 01:37:34;;;;;;;21.27;4.70;;;;;;;15.98;100.00;95065.66;1023747;29;20030;-69
2021/06/21 01:38:07;;;;;;;15.07;4.22;;;;;;;15.97;100.00;95064.88;1023394;29;20038;-70
2021/06/21 01:38:40;;;;;;;15.48;4.20;;;;;;;15.96;100.00;95058.03;1023241;28;20445;-68
2021/06/21 01:39:11;;;;;;;15.43;4.07;;;;;;;16.01;100.00;95059.72;1029493;28;20567;-69
2021/06/21 01:39:45;;;;;;;12.65;3.75;;;;;;;16.02;100.00;95069.22;1030978;28;20049;-68
2021/06/21 01:40:17;;;;;;;12.95;4.40;;;;;;;16.03;100.00;95062.84;1030521;28;20051;-69
2021/06/21 01:40:52;;;;;;;13.45;3.55;;;;;;;15.96;100.00;95051.94;1024721;28;20027;-69
2021/06/21 01:41:25;;;;;;;12.60;3.97;;;;;;;16.05;100.00;95067.81;1027124;28;20033;-68
2021/06/21 01:41:57;;;;;;;12.50;4.22;;;;;;;16.06;100.00;95061.44;1025441;28;20031;-68
2021/06/21 01:42:28;;;;;;;17.50;4.47;;;;;;;16.01;100.00;95059.72;1035363;28;20615;-69
2021/06/21 01:43:00;;;;;;;15.68;4.32;;;;;;;16.04;100.00;95061.75;1036126;28;20038;-68
2021/06/21 01:43:33;;;;;;;11.52;4.25;;;;;;;16.05;100.00;95073.88;1031094;28;20033;-68
2021/06/21 01:44:04;;;;;;;12.82;4.30;;;;;;;16.05;100.00;95067.81;1025515;28;20109;-68
2021/06/21 01:44:43;;;;;;;13.85;4.18;;;;;;;16.03;100.00;95070.78;1025229;28;20015;-67
2021/06/21 01:45:16;;;;;;;20.35;4.63;;;;;;;16.03;100.00;95070.78;1024596;28;20031;-68
2021/06/21 01:45:47;;;;;;;17.63;4.40;;;;;;;16.03;100.00;95074.22;1027014;28;20026;-68
2021/06/21 01:46:18;;;;;;;14.70;4.75;;;;;;;16.03;100.00;95073.44;1031231;28;20034;-67
2021/06/21 01:46:49;;;;;;;18.33;4.45;;;;;;;16.00;100.00;95066.91;1027108;28;20018;-68
2021/06/21 01:47:19;;;;;;;17.67;4.47;;;;;;;16.02;100.00;95074.50;1035240;28;20014;-67
2021/06/21 01:47:51;;;;;;;13.88;4.53;;;;;;;16.02;100.00;95074.50;1030636;28;20030;-68
2021/06/21 01:48:22;;;;;;;12.65;4.13;;;;;;;16.03;100.00;95068.16;1027180;28;20078;-69
2021/06/21 01:48:56;;;;;;;13.00;4.40;;;;;;;16.05;100.00;95070.47;1030907;28;20068;-68
2021/06/21 01:49:29;;;;;;;13.88;4.60;;;;;;;16.03;100.00;95068.16;1027226;28;20019;-68
2021/06/21 01:50:00;;;;;;;18.52;4.72;;;;;;;16.01;100.00;95070.31;1027225;28;20133;-68
2021/06/21 01:50:30;;;;;;;10.93;4.68;;;;;;;16.03;100.00;95073.44;1029187;28;20055;-67
2021/06/21 01:51:01;;;;;;;13.70;4.35;;;;;;;16.02;100.00;95077.16;1032420;28;20027;-68
2021/06/21 01:51:32;;;;;;;20.77;4.53;;;;;;;16.03;100.00;95068.16;1035426;28;20025;-68
2021/06/21 01:52:03;;;;;;;10.98;4.28;;;;;;;16.03;100.00;95073.44;1035075;28;20026;-67
2021/06/21 01:52:36;;;;;;;15.20;4.30;;;;;;;16.04;100.00;95069.69;1030318;28;20027;-67
2021/06/21 01:53:11;;;;;;;10.88;4.03;;;;;;;15.97;100.00;95064.09;1034566;28;20080;-69
2021/06/21 01:53:41;;;;;;;19.55;4.53;;;;;;;16.03;100.00;95074.22;1031745;28;20459;-68
2021/06/21 01:54:12;;;;;;;16.55;4.53;;;;;;;16.01;100.00;95070.31;1031253;28;20027;-68
2021/06/21 01:54:49;;;;;;;16.20;4.80;;;;;;;16.05;100.00;95086.34;1032451;28;20667;-68
2021/06/21 01:55:21;;;;;;;12.63;4.80;;;;;;;16.00;100.00;95074.06;1031280;28;20367;-66
2021/06/21 01:55:57;;;;;;;19.02;4.72;;;;;;;16.01;100.00;95081.69;1031003;28;20041;-69
2021/06/21 01:56:40;;;;;;;13.52;4.32;;;;;;;16.02;100.00;95080.56;1031129;28;20022;-67
2021/06/21 01:57:10;;;;;;;15.60;4.50;;;;;;;16.03;100.00;95084.81;1031011;28;20042;-68
2021/06/21 01:57:41;;;;;;;16.52;4.88;;;;;;;16.03;100.00;95090.09;1027287;28;20504;-68
2021/06/21 01:58:12;;;;;;;16.67;4.72;;;;;;;16.04;100.00;95088.22;1030951;28;20536;-68
2021/06/21 01:58:42;;;;;;;11.77;4.25;;;;;;;15.98;100.00;95073.59;1031211;28;20022;-69
2021/06/21 01:59:13;;;;;;;14.95;4.85;;;;;;;16.06;100.00;95082.59;1028125;28;20031;-68
2021/06/21 01:59:44;;;;;;;13.32;4.68;;;;;;;16.03;100.00;95087.44;1023796;28;21072;-69
2021/06/21 02:00:15;;;;;;;16.60;4.93;;;;;;;16.01;100.00;95086.19;1031242;28;20038;-68
2021/06/21 02:00:45;;;;;;;10.43;4.45;;;;;;;16.05;100.00;95089.78;1031182;28;20468;-67
2021/06/21 02:01:17;;;;;;;17.15;5.20;;;;;;;16.00;100.00;95085.44;1027626;28;20019;-68
2021/06/21 02:01:47;;;;;;;11.52;5.10;;;;;;;16.02;100.00;95082.44;1027199;28;20026;-68
2021/06/21 02:02:22;;;;;;;16.05;5.80;;;;;;;16.01;100.00;95086.19;1026853;28;20022;-68
2021/06/21 02:02:53;;;;;;;17.00;4.57;;;;;;;15.98;100.00;95082.31;1022470;29;20029;-67
2021/06/21 02:03:24;;;;;;;18.50;4.88;;;;;;;16.02;100.00;95077.16;1023102;29;20029;-67
2021/06/21 02:03:59;;;;;;;13.80;4.88;;;;;;;16.03;100.00;95091.97;1023069;29;20039;-69
2021/06/21 02:04:31;;;;;;;15.60;4.50;;;;;;;16.02;100.00;95091.16;1019153;29;20536;-68
2021/06/21 02:05:02;;;;;;;11.73;4.68;;;;;;;16.01;100.00;95086.19;1023158;29;20038;-68
2021/06/21 02:05:34;;;;;;;19.40;5.47;;;;;;;16.03;100.00;95089.31;1023092;29;20046;-68
2021/06/21 02:06:04;;;;;;;15.45;5.20;;;;;;;16.01;100.00;95083.56;1033732;28;20955;-69
2021/06/21 02:06:35;;;;;;;16.80;4.90;;;;;;;15.97;100.00;95072.81;1027115;28;20042;-68
2021/06/21 02:07:08;;;;;;;14.63;5.15;;;;;;;16.04;100.00;95088.22;1031368;28;20034;-68
2021/06/21 02:07:39;;;;;;;23.15;5.80;;;;;;;16.02;100.00;95087.75;1033374;28;20027;-68
2021/06/21 02:08:10;;;;;;;12.40;4.90;;;;;;;15.97;100.00;95079.97;1026962;28;20030;-69
2021/06/21 02:08:41;;;;;;;15.48;4.78;;;;;;;16.03;100.00;95094.63;1031063;28;20448;-68
2021/06/21 02:09:11;;;;;;;14.07;5.20;;;;;;;16.03;100.00;95090.09;1032077;28;20439;-68
2021/06/21 02:09:42;;;;;;;17.33;5.68;;;;;;;16.04;100.00;95090.88;1027240;28;20038;-68
2021/06/21 02:10:13;;;;;;;12.15;4.97;;;;;;;16.04;100.00;95090.88;1023175;29;20492;-68
2021/06/21 02:10:43;;;;;;;19.05;5.95;;;;;;;16.05;100.00;95087.13;1027141;28;20110;-68
2021/06/21 02:11:14;;;;;;;21.27;5.55;;;;;;;16.06;100.00;95091.31;1034828;28;20458;-69
2021/06/21 02:11:45;;;;;;;20.90;5.15;;;;;;;16.05;100.00;95081.06;1031003;28;20026;-70
2021/06/21 02:12:22;;;;;;;17.17;5.32;;;;;;;16.06;100.00;95093.19;1035216;28;20112;-69
2021/06/21 02:12:53;;;;;;;14.02;5.10;;;;;;;16.05;100.00;95092.41;1035583;28;20025;-65
2021/06/21 02:13:23;;;;;;;13.55;4.97;;;;;;;16.07;100.00;95086.81;1030996;28;20029;-66
2021/06/21 02:13:54;;;;;;;15.48;5.18;;;;;;;16.05;100.00;95092.41;1026892;28;20023;-69
2021/06/21 02:14:26;;;;;;;15.55;4.95;;;;;;;16.06;100.00;95080.72;1031238;28;20101;-68
2021/06/21 02:14:57;;;;;;;11.82;4.85;;;;;;;16.07;100.00;95084.19;1030644;28;20053;-66
2021/06/21 02:15:28;;;;;;;13.27;5.05;;;;;;;16.06;100.00;95090.53;1031184;28;20022;-68
2021/06/21 02:15:58;;;;;;;16.30;5.15;;;;;;;16.03;100.00;95087.44;1030639;28;20050;-68
2021/06/21 02:16:29;;;;;;;16.48;4.75;;;;;;;16.04;100.00;95088.22;1026910;28;20118;-70
2021/06/21 02:16:59;;;;;;;12.77;5.35;;;;;;;16.00;100.00;95079.34;1027007;28;20077;-70
2021/06/21 02:17:30;;;;;;;16.13;4.70;;;;;;;16.04;100.00;95090.88;1027007;28;20113;-68
2021/06/21 02:18:00;;;;;;;14.32;4.78;;;;;;;16.05;100.00;95092.41;1031232;28;20492;-68
2021/06/21 02:18:31;;;;;;;16.17;4.80;;;;;;;15.99;100.00;95089.13;1031192;28;20511;-69
2021/06/21 02:19:01;;;;;;;17.38;4.63;;;;;;;16.02;100.00;95085.09;1031442;28;20034;-68
2021/06/21 02:19:32;;;;;;;17.25;4.90;;;;;;;16.05;100.00;95095.06;1031425;28;20037;-68
2021/06/21 02:20:03;;;;;;;16.13;4.35;;;;;;;16.04;100.00;95101.44;1029135;28;20570;-67
2021/06/21 02:20:34;;;;;;;16.02;4.72;;;;;;;16.04;100.00;95101.44;1023189;29;20027;-69
2021/06/21 02:21:05;;;;;;;13.88;5.18;;;;;;;16.00;100.00;95095.25;1027232;28;20768;-67
2021/06/21 02:21:35;;;;;;;14.65;4.53;;;;;;;16.05;100.00;95108.28;1028249;28;20034;-68
2021/06/21 02:22:06;;;;;;;9.48;4.03;;;;;;;16.03;100.00;95105.19;1031017;28;20022;-68
2021/06/21 02:22:36;;;;;;;17.20;5.38;;;;;;;16.00;100.00;95096.00;1035500;28;20530;-68
2021/06/21 02:23:07;;;;;;;11.50;4.78;;;;;;;16.00;100.00;95096.00;1030464;28;20026;-67
2021/06/21 02:23:37;;;;;;;17.45;5.05;;;;;;;16.01;100.00;95099.44;1030919;28;20844;-68
2021/06/21 02:24:19;;;;;;;17.30;4.97;;;;;;;16.00;100.00;95103.94;1027200;28;20408;-68
2021/06/21 02:24:54;;;;;;;18.77;5.35;;;;;;;15.97;100.00;95095.84;1021204;29;20051;-68
2021/06/21 02:25:24;;;;;;;18.00;4.88;;;;;;;16.01;100.00;95107.38;1024264;29;20471;-70
2021/06/21 02:25:57;;;;;;;14.23;5.40;;;;;;;15.95;100.00;95098.03;1028711;28;20542;-68
2021/06/21 02:26:28;;;;;;;16.55;5.40;;;;;;;16.02;100.00;95098.34;1029848;28;20090;-69
2021/06/21 02:26:59;;;;;;;13.70;5.45;;;;;;;15.99;100.00;95096.31;1028438;28;20026;-68
2021/06/21 02:27:29;;;;;;;24.17;6.13;;;;;;;16.03;100.00;95094.63;1024320;28;20476;-69
2021/06/21 02:28:00;;;;;;;15.80;5.65;;;;;;;16.01;100.00;95099.44;1027357;28;20881;-68
2021/06/21 02:28:30;;;;;;;14.80;4.65;;;;;;;15.96;100.00;95099.56;1026980;28;20035;-69
2021/06/21 02:29:01;;;;;;;13.77;5.00;;;;;;;16.01;100.00;95102.84;1027019;28;20031;-68
2021/06/21 02:29:31;;;;;;;15.60;4.47;;;;;;;15.95;100.00;95092.72;1030985;28;20573;-69
2021/06/21 02:30:04;;;;;;;15.57;5.40;;;;;;;15.98;100.00;95100.81;1034688;28;20042;-68
2021/06/21 02:30:36;;;;;;;14.70;5.15;;;;;;;16.02;100.00;95104.41;1035136;28;20034;-67
2021/06/21 02:31:07;;;;;;;18.50;4.47;;;;;;;16.02;100.00;95106.28;1030993;28;20030;-68
2021/06/21 02:31:37;;;;;;;14.13;4.50;;;;;;;15.99;100.00;95099.72;1039152;28;20033;-68
2021/06/21 02:32:08;;;;;;;12.88;4.82;;;;;;;15.99;100.00;95098.94;1038870;28;20026;-68
2021/06/21 02:32:38;;;;;;;14.45;4.75;;;;;;;15.96;100.00;95095.09;1033833;28;20072;-70